Violet Hill, Arkansas
Current Conditions -  °F | °C
As of 4:15 PM on Thursday 27 Nov 2014 (Local Time) from KBVX Reporting Station
Clear Clear  
Wind Chill: 46°   Ceiling: Unl
Heat Index: 46°   Visibility: 10mi
Dew Point: 25°   Wind: 3mph
Humidity: 43%   Direction: 320°NW
Pressure: 30.46"   Gusts: NA
Location:  36.15°N, 91.84°W
Report Text: KBVX 272215Z AUTO 32003KT 10SM CLR 08/M04 A3046 RMK AO1
Loading
Personal Weather Stations






























Interactive Weather Map New forecast layout! Learn more

10-Day Weather Forecast

Advertisements
Track Severe Weather on mobile